sensor_id;sensor_type;location;lat;lon;timestamp;P1;durP1;ratioP1;P2;durP2;ratioP2
56122;SDS011;42426;46.104;19.656;2022-11-12T00:00:40;72.35;;;44.80;;
56122;SDS011;42426;46.104;19.656;2022-11-12T00:03:06;69.97;;;41.78;;
56122;SDS011;42426;46.104;19.656;2022-11-12T00:05:32;67.20;;;40.83;;
56122;SDS011;42426;46.104;19.656;2022-11-12T00:07:59;66.65;;;40.05;;
56122;SDS011;42426;46.104;19.656;2022-11-12T00:10:25;59.78;;;36.45;;
56122;SDS011;42426;46.104;19.656;2022-11-12T00:12:51;51.75;;;34.63;;
56122;SDS011;42426;46.104;19.656;2022-11-12T00:15:18;52.53;;;32.67;;
56122;SDS011;42426;46.104;19.656;2022-11-12T00:17:44;48.38;;;30.02;;
56122;SDS011;42426;46.104;19.656;2022-11-12T00:20:10;46.50;;;29.58;;
56122;SDS011;42426;46.104;19.656;2022-11-12T00:22:37;42.00;;;30.13;;
56122;SDS011;42426;46.104;19.656;2022-11-12T00:25:03;46.97;;;28.45;;
56122;SDS011;42426;46.104;19.656;2022-11-12T00:27:33;45.70;;;27.35;;
56122;SDS011;42426;46.104;19.656;2022-11-12T00:29:59;46.72;;;27.17;;
56122;SDS011;42426;46.104;19.656;2022-11-12T00:32:25;50.60;;;32.28;;
56122;SDS011;42426;46.104;19.656;2022-11-12T00:34:51;54.67;;;31.83;;
56122;SDS011;42426;46.104;19.656;2022-11-12T00:37:18;54.92;;;33.88;;
56122;SDS011;42426;46.104;19.656;2022-11-12T00:39:45;53.13;;;37.38;;
56122;SDS011;42426;46.104;19.656;2022-11-12T00:42:11;60.80;;;36.15;;
56122;SDS011;42426;46.104;19.656;2022-11-12T00:44:37;57.00;;;36.45;;
56122;SDS011;42426;46.104;19.656;2022-11-12T00:47:04;51.97;;;34.47;;
56122;SDS011;42426;46.104;19.656;2022-11-12T00:49:30;52.20;;;34.42;;
56122;SDS011;42426;46.104;19.656;2022-11-12T00:51:56;57.60;;;34.50;;
56122;SDS011;42426;46.104;19.656;2022-11-12T00:54:23;54.05;;;32.28;;
56122;SDS011;42426;46.104;19.656;2022-11-12T00:56:49;55.35;;;32.53;;
56122;SDS011;42426;46.104;19.656;2022-11-12T00:59:15;48.28;;;30.70;;
56122;SDS011;42426;46.104;19.656;2022-11-12T01:01:41;43.17;;;28.95;;
56122;SDS011;42426;46.104;19.656;2022-11-12T01:04:08;42.42;;;28.15;;
56122;SDS011;42426;46.104;19.656;2022-11-12T01:06:34;44.28;;;28.73;;
56122;SDS011;42426;46.104;19.656;2022-11-12T01:09:00;43.08;;;28.08;;
56122;SDS011;42426;46.104;19.656;2022-11-12T01:11:27;43.08;;;27.48;;
56122;SDS011;42426;46.104;19.656;2022-11-12T01:13:55;40.00;;;26.02;;
56122;SDS011;42426;46.104;19.656;2022-11-12T01:16:22;39.00;;;24.60;;
56122;SDS011;42426;46.104;19.656;2022-11-12T01:18:56;37.15;;;24.52;;
56122;SDS011;42426;46.104;19.656;2022-11-12T01:21:26;38.83;;;24.63;;
56122;SDS011;42426;46.104;19.656;2022-11-12T01:23:53;36.38;;;24.13;;
56122;SDS011;42426;46.104;19.656;2022-11-12T01:26:20;34.22;;;24.65;;
56122;SDS011;42426;46.104;19.656;2022-11-12T01:28:46;38.95;;;25.33;;
56122;SDS011;42426;46.104;19.656;2022-11-12T01:31:14;48.25;;;27.17;;
56122;SDS011;42426;46.104;19.656;2022-11-12T01:33:41;41.20;;;27.55;;
56122;SDS011;42426;46.104;19.656;2022-11-12T01:36:07;41.95;;;28.42;;
56122;SDS011;42426;46.104;19.656;2022-11-12T01:38:37;50.92;;;32.20;;
56122;SDS011;42426;46.104;19.656;2022-11-12T01:41:03;47.22;;;30.25;;
56122;SDS011;42426;46.104;19.656;2022-11-12T01:43:30;53.65;;;33.60;;
56122;SDS011;42426;46.104;19.656;2022-11-12T01:45:56;50.45;;;34.13;;
56122;SDS011;42426;46.104;19.656;2022-11-12T01:50:49;61.85;;;36.15;;
56122;SDS011;42426;46.104;19.656;2022-11-12T01:53:15;51.13;;;35.08;;
56122;SDS011;42426;46.104;19.656;2022-11-12T01:55:41;52.45;;;31.88;;
56122;SDS011;42426;46.104;19.656;2022-11-12T01:58:09;49.47;;;30.98;;
56122;SDS011;42426;46.104;19.656;2022-11-12T02:00:36;48.53;;;29.80;;
56122;SDS011;42426;46.104;19.656;2022-11-12T02:03:04;43.40;;;28.35;;
56122;SDS011;42426;46.104;19.656;2022-11-12T02:05:32;46.92;;;30.05;;
56122;SDS011;42426;46.104;19.656;2022-11-12T02:07:58;46.83;;;29.60;;
56122;SDS011;42426;46.104;19.656;2022-11-12T02:10:25;42.88;;;29.58;;
56122;SDS011;42426;46.104;19.656;2022-11-12T02:12:52;41.88;;;25.88;;
56122;SDS011;42426;46.104;19.656;2022-11-12T02:15:37;36.15;;;24.55;;
56122;SDS011;42426;46.104;19.656;2022-11-12T02:18:04;35.58;;;23.17;;
56122;SDS011;42426;46.104;19.656;2022-11-12T02:20:34;35.80;;;23.77;;
56122;SDS011;42426;46.104;19.656;2022-11-12T02:23:00;45.88;;;25.10;;
56122;SDS011;42426;46.104;19.656;2022-11-12T02:25:26;29.83;;;21.42;;
56122;SDS011;42426;46.104;19.656;2022-11-12T02:27:55;31.40;;;21.05;;
56122;SDS011;42426;46.104;19.656;2022-11-12T02:30:37;34.45;;;22.13;;
56122;SDS011;42426;46.104;19.656;2022-11-12T02:33:04;35.40;;;20.60;;
56122;SDS011;42426;46.104;19.656;2022-11-12T02:35:30;35.28;;;21.98;;
56122;SDS011;42426;46.104;19.656;2022-11-12T02:37:56;32.35;;;22.13;;
56122;SDS011;42426;46.104;19.656;2022-11-12T02:40:23;31.38;;;20.13;;
56122;SDS011;42426;46.104;19.656;2022-11-12T02:42:49;30.08;;;21.02;;
56122;SDS011;42426;46.104;19.656;2022-11-12T02:45:15;29.45;;;20.17;;
56122;SDS011;42426;46.104;19.656;2022-11-12T02:47:42;26.75;;;18.63;;
56122;SDS011;42426;46.104;19.656;2022-11-12T02:50:08;29.02;;;19.85;;
56122;SDS011;42426;46.104;19.656;2022-11-12T02:52:34;27.63;;;19.27;;
56122;SDS011;42426;46.104;19.656;2022-11-12T02:55:00;27.67;;;19.00;;
56122;SDS011;42426;46.104;19.656;2022-11-12T02:57:26;29.45;;;20.90;;
56122;SDS011;42426;46.104;19.656;2022-11-12T02:59:54;29.80;;;19.63;;
56122;SDS011;42426;46.104;19.656;2022-11-12T03:02:20;32.90;;;20.77;;
56122;SDS011;42426;46.104;19.656;2022-11-12T03:04:46;33.20;;;19.35;;
56122;SDS011;42426;46.104;19.656;2022-11-12T03:07:12;30.55;;;20.05;;
56122;SDS011;42426;46.104;19.656;2022-11-12T03:09:38;32.03;;;20.27;;
56122;SDS011;42426;46.104;19.656;2022-11-12T03:12:07;30.27;;;19.98;;
56122;SDS011;42426;46.104;19.656;2022-11-12T03:14:33;33.78;;;20.60;;
56122;SDS011;42426;46.104;19.656;2022-11-12T03:16:59;31.38;;;20.65;;
56122;SDS011;42426;46.104;19.656;2022-11-12T03:19:25;31.85;;;19.45;;
56122;SDS011;42426;46.104;19.656;2022-11-12T03:21:51;33.00;;;20.42;;
56122;SDS011;42426;46.104;19.656;2022-11-12T03:24:17;30.23;;;20.63;;
56122;SDS011;42426;46.104;19.656;2022-11-12T03:26:44;26.75;;;20.38;;
56122;SDS011;42426;46.104;19.656;2022-11-12T03:29:10;31.98;;;20.15;;
56122;SDS011;42426;46.104;19.656;2022-11-12T03:31:37;28.40;;;20.70;;
56122;SDS011;42426;46.104;19.656;2022-11-12T03:34:03;31.05;;;20.40;;
56122;SDS011;42426;46.104;19.656;2022-11-12T03:36:31;26.75;;;20.40;;
56122;SDS011;42426;46.104;19.656;2022-11-12T03:38:57;29.13;;;20.15;;
56122;SDS011;42426;46.104;19.656;2022-11-12T03:41:24;30.13;;;20.40;;
56122;SDS011;42426;46.104;19.656;2022-11-12T03:43:50;29.38;;;19.95;;
56122;SDS011;42426;46.104;19.656;2022-11-12T03:46:16;31.52;;;21.40;;
56122;SDS011;42426;46.104;19.656;2022-11-12T03:48:42;31.17;;;20.48;;
56122;SDS011;42426;46.104;19.656;2022-11-12T03:51:08;29.10;;;20.58;;
56122;SDS011;42426;46.104;19.656;2022-11-12T03:53:36;34.40;;;21.00;;
56122;SDS011;42426;46.104;19.656;2022-11-12T03:56:02;29.02;;;20.27;;
56122;SDS011;42426;46.104;19.656;2022-11-12T03:58:28;29.02;;;19.42;;
56122;SDS011;42426;46.104;19.656;2022-11-12T04:00:54;34.33;;;21.25;;
56122;SDS011;42426;46.104;19.656;2022-11-12T04:03:20;30.48;;;20.40;;
56122;SDS011;42426;46.104;19.656;2022-11-12T04:05:47;32.92;;;21.52;;
56122;SDS011;42426;46.104;19.656;2022-11-12T04:08:33;30.50;;;20.35;;
56122;SDS011;42426;46.104;19.656;2022-11-12T04:11:06;36.05;;;22.85;;
56122;SDS011;42426;46.104;19.656;2022-11-12T04:13:33;32.13;;;21.98;;
56122;SDS011;42426;46.104;19.656;2022-11-12T04:16:06;36.63;;;24.05;;
56122;SDS011;42426;46.104;19.656;2022-11-12T04:18:52;35.58;;;22.92;;
56122;SDS011;42426;46.104;19.656;2022-11-12T04:21:38;33.22;;;22.25;;
56122;SDS011;42426;46.104;19.656;2022-11-12T04:27:15;32.97;;;22.27;;
56122;SDS011;42426;46.104;19.656;2022-11-12T04:29:41;35.72;;;23.02;;
56122;SDS011;42426;46.104;19.656;2022-11-12T04:32:27;33.72;;;22.05;;
56122;SDS011;42426;46.104;19.656;2022-11-12T04:34:53;36.50;;;24.27;;
56122;SDS011;42426;46.104;19.656;2022-11-12T04:37:20;31.35;;;21.90;;
56122;SDS011;42426;46.104;19.656;2022-11-12T04:39:46;32.95;;;23.40;;
56122;SDS011;42426;46.104;19.656;2022-11-12T04:42:12;37.65;;;25.75;;
56122;SDS011;42426;46.104;19.656;2022-11-12T04:44:57;35.60;;;23.27;;
56122;SDS011;42426;46.104;19.656;2022-11-12T04:47:33;37.03;;;22.83;;
56122;SDS011;42426;46.104;19.656;2022-11-12T04:50:00;36.90;;;25.77;;
56122;SDS011;42426;46.104;19.656;2022-11-12T04:52:26;39.00;;;25.10;;
56122;SDS011;42426;46.104;19.656;2022-11-12T04:54:53;40.60;;;24.67;;
56122;SDS011;42426;46.104;19.656;2022-11-12T04:57:19;33.40;;;23.38;;
56122;SDS011;42426;46.104;19.656;2022-11-12T04:59:46;40.65;;;27.52;;
56122;SDS011;42426;46.104;19.656;2022-11-12T05:02:12;49.03;;;31.58;;
56122;SDS011;42426;46.104;19.656;2022-11-12T05:04:38;48.38;;;32.50;;
56122;SDS011;42426;46.104;19.656;2022-11-12T05:07:05;51.33;;;34.03;;
56122;SDS011;42426;46.104;19.656;2022-11-12T05:09:31;46.92;;;29.55;;
56122;SDS011;42426;46.104;19.656;2022-11-12T05:11:57;45.35;;;32.08;;
56122;SDS011;42426;46.104;19.656;2022-11-12T05:14:23;45.75;;;30.80;;
56122;SDS011;42426;46.104;19.656;2022-11-12T05:16:50;47.75;;;31.27;;
56122;SDS011;42426;46.104;19.656;2022-11-12T05:19:16;47.35;;;29.30;;
56122;SDS011;42426;46.104;19.656;2022-11-12T05:21:42;48.13;;;30.70;;
56122;SDS011;42426;46.104;19.656;2022-11-12T05:24:27;42.38;;;28.58;;
56122;SDS011;42426;46.104;19.656;2022-11-12T05:26:53;40.15;;;28.33;;
56122;SDS011;42426;46.104;19.656;2022-11-12T05:29:19;42.80;;;26.98;;
56122;SDS011;42426;46.104;19.656;2022-11-12T05:31:45;38.53;;;26.10;;
56122;SDS011;42426;46.104;19.656;2022-11-12T05:34:12;40.55;;;25.90;;
56122;SDS011;42426;46.104;19.656;2022-11-12T05:36:38;37.70;;;25.80;;
56122;SDS011;42426;46.104;19.656;2022-11-12T05:39:04;37.67;;;24.83;;
56122;SDS011;42426;46.104;19.656;2022-11-12T05:41:30;37.47;;;25.65;;
56122;SDS011;42426;46.104;19.656;2022-11-12T05:43:56;34.72;;;25.33;;
56122;SDS011;42426;46.104;19.656;2022-11-12T05:46:22;32.63;;;24.55;;
56122;SDS011;42426;46.104;19.656;2022-11-12T05:48:48;37.40;;;25.95;;
56122;SDS011;42426;46.104;19.656;2022-11-12T05:51:14;37.45;;;26.85;;
56122;SDS011;42426;46.104;19.656;2022-11-12T05:53:41;40.42;;;25.92;;
56122;SDS011;42426;46.104;19.656;2022-11-12T05:56:07;40.35;;;24.85;;
56122;SDS011;42426;46.104;19.656;2022-11-12T05:58:35;32.85;;;24.10;;
56122;SDS011;42426;46.104;19.656;2022-11-12T06:01:01;34.72;;;24.45;;
56122;SDS011;42426;46.104;19.656;2022-11-12T06:03:27;42.40;;;27.15;;
56122;SDS011;42426;46.104;19.656;2022-11-12T06:05:54;39.88;;;27.77;;
56122;SDS011;42426;46.104;19.656;2022-11-12T06:08:20;44.63;;;28.98;;
56122;SDS011;42426;46.104;19.656;2022-11-12T06:10:49;41.63;;;27.13;;
56122;SDS011;42426;46.104;19.656;2022-11-12T06:13:17;40.97;;;28.45;;
56122;SDS011;42426;46.104;19.656;2022-11-12T06:15:43;47.08;;;30.58;;
56122;SDS011;42426;46.104;19.656;2022-11-12T06:18:10;44.88;;;31.27;;
56122;SDS011;42426;46.104;19.656;2022-11-12T06:20:36;42.08;;;30.08;;
56122;SDS011;42426;46.104;19.656;2022-11-12T06:23:02;46.90;;;30.38;;
56122;SDS011;42426;46.104;19.656;2022-11-12T06:25:29;39.25;;;28.02;;
56122;SDS011;42426;46.104;19.656;2022-11-12T06:27:55;40.47;;;26.35;;
56122;SDS011;42426;46.104;19.656;2022-11-12T06:30:21;39.28;;;26.80;;
56122;SDS011;42426;46.104;19.656;2022-11-12T06:32:47;42.67;;;29.52;;
56122;SDS011;42426;46.104;19.656;2022-11-12T06:35:13;43.58;;;29.15;;
56122;SDS011;42426;46.104;19.656;2022-11-12T06:37:46;38.88;;;28.50;;
56122;SDS011;42426;46.104;19.656;2022-11-12T06:40:12;40.30;;;26.67;;
56122;SDS011;42426;46.104;19.656;2022-11-12T06:42:39;36.80;;;27.30;;
56122;SDS011;42426;46.104;19.656;2022-11-12T06:45:05;40.40;;;26.85;;
56122;SDS011;42426;46.104;19.656;2022-11-12T06:47:31;47.42;;;28.58;;
56122;SDS011;42426;46.104;19.656;2022-11-12T06:49:57;40.17;;;28.13;;
56122;SDS011;42426;46.104;19.656;2022-11-12T06:52:23;42.22;;;27.77;;
56122;SDS011;42426;46.104;19.656;2022-11-12T06:54:50;39.42;;;26.15;;
56122;SDS011;42426;46.104;19.656;2022-11-12T06:57:17;37.90;;;26.08;;
56122;SDS011;42426;46.104;19.656;2022-11-12T06:59:43;45.85;;;27.58;;
56122;SDS011;42426;46.104;19.656;2022-11-12T07:02:10;36.75;;;25.15;;
56122;SDS011;42426;46.104;19.656;2022-11-12T07:04:37;36.95;;;26.23;;
56122;SDS011;42426;46.104;19.656;2022-11-12T07:07:03;37.13;;;25.15;;
56122;SDS011;42426;46.104;19.656;2022-11-12T07:09:30;43.33;;;28.00;;
56122;SDS011;42426;46.104;19.656;2022-11-12T07:11:56;39.92;;;27.38;;
56122;SDS011;42426;46.104;19.656;2022-11-12T07:14:22;40.88;;;26.15;;
56122;SDS011;42426;46.104;19.656;2022-11-12T07:16:48;37.85;;;25.60;;
56122;SDS011;42426;46.104;19.656;2022-11-12T07:19:14;38.67;;;25.27;;
56122;SDS011;42426;46.104;19.656;2022-11-12T07:21:40;39.05;;;24.35;;
56122;SDS011;42426;46.104;19.656;2022-11-12T07:24:06;35.33;;;23.48;;
56122;SDS011;42426;46.104;19.656;2022-11-12T07:26:32;33.58;;;21.38;;
56122;SDS011;42426;46.104;19.656;2022-11-12T07:28:58;32.35;;;22.63;;
56122;SDS011;42426;46.104;19.656;2022-11-12T07:31:25;31.15;;;22.38;;
56122;SDS011;42426;46.104;19.656;2022-11-12T07:33:51;34.72;;;22.83;;
56122;SDS011;42426;46.104;19.656;2022-11-12T07:36:19;36.67;;;22.20;;
56122;SDS011;42426;46.104;19.656;2022-11-12T07:38:45;33.90;;;21.20;;
56122;SDS011;42426;46.104;19.656;2022-11-12T07:41:12;30.13;;;20.73;;
56122;SDS011;42426;46.104;19.656;2022-11-12T07:43:39;31.58;;;22.63;;
56122;SDS011;42426;46.104;19.656;2022-11-12T07:46:07;30.88;;;21.05;;
56122;SDS011;42426;46.104;19.656;2022-11-12T07:48:33;29.05;;;20.83;;
56122;SDS011;42426;46.104;19.656;2022-11-12T07:51:06;29.90;;;19.95;;
56122;SDS011;42426;46.104;19.656;2022-11-12T07:53:32;30.02;;;22.05;;
56122;SDS011;42426;46.104;19.656;2022-11-12T07:55:59;30.25;;;20.05;;
56122;SDS011;42426;46.104;19.656;2022-11-12T07:58:26;31.85;;;21.65;;
56122;SDS011;42426;46.104;19.656;2022-11-12T08:00:52;29.17;;;19.95;;
56122;SDS011;42426;46.104;19.656;2022-11-12T08:03:18;31.63;;;21.15;;
56122;SDS011;42426;46.104;19.656;2022-11-12T08:05:45;34.35;;;19.55;;
56122;SDS011;42426;46.104;19.656;2022-11-12T08:08:11;28.08;;;19.58;;
56122;SDS011;42426;46.104;19.656;2022-11-12T08:10:37;32.88;;;20.80;;
56122;SDS011;42426;46.104;19.656;2022-11-12T08:13:04;28.90;;;19.45;;
56122;SDS011;42426;46.104;19.656;2022-11-12T08:15:30;28.60;;;19.90;;
56122;SDS011;42426;46.104;19.656;2022-11-12T08:17:56;28.75;;;19.85;;
56122;SDS011;42426;46.104;19.656;2022-11-12T08:20:23;29.33;;;19.27;;
56122;SDS011;42426;46.104;19.656;2022-11-12T08:22:49;27.88;;;20.08;;
56122;SDS011;42426;46.104;19.656;2022-11-12T08:25:16;33.53;;;19.90;;
56122;SDS011;42426;46.104;19.656;2022-11-12T08:27:43;25.95;;;17.73;;
56122;SDS011;42426;46.104;19.656;2022-11-12T08:30:09;28.42;;;18.98;;
56122;SDS011;42426;46.104;19.656;2022-11-12T08:32:35;26.98;;;18.67;;
56122;SDS011;42426;46.104;19.656;2022-11-12T08:35:01;26.98;;;18.08;;
56122;SDS011;42426;46.104;19.656;2022-11-12T08:37:27;22.75;;;17.50;;
56122;SDS011;42426;46.104;19.656;2022-11-12T08:39:53;26.83;;;17.77;;
56122;SDS011;42426;46.104;19.656;2022-11-12T08:42:19;23.75;;;18.08;;
56122;SDS011;42426;46.104;19.656;2022-11-12T08:44:45;27.95;;;18.10;;
56122;SDS011;42426;46.104;19.656;2022-11-12T08:47:12;26.27;;;17.95;;
56122;SDS011;42426;46.104;19.656;2022-11-12T08:49:38;24.92;;;17.75;;
56122;SDS011;42426;46.104;19.656;2022-11-12T08:52:04;27.55;;;18.02;;
56122;SDS011;42426;46.104;19.656;2022-11-12T08:54:30;25.95;;;19.88;;
56122;SDS011;42426;46.104;19.656;2022-11-12T08:56:56;30.23;;;18.73;;
56122;SDS011;42426;46.104;19.656;2022-11-12T08:59:22;25.95;;;17.15;;
56122;SDS011;42426;46.104;19.656;2022-11-12T09:01:48;27.00;;;18.42;;
56122;SDS011;42426;46.104;19.656;2022-11-12T09:04:14;29.23;;;18.77;;
56122;SDS011;42426;46.104;19.656;2022-11-12T09:06:40;27.30;;;17.98;;
56122;SDS011;42426;46.104;19.656;2022-11-12T09:09:07;31.75;;;18.40;;
56122;SDS011;42426;46.104;19.656;2022-11-12T09:11:34;24.27;;;16.33;;
56122;SDS011;42426;46.104;19.656;2022-11-12T09:14:00;30.35;;;17.95;;
56122;SDS011;42426;46.104;19.656;2022-11-12T09:16:26;27.80;;;18.67;;
56122;SDS011;42426;46.104;19.656;2022-11-12T09:18:52;29.45;;;16.90;;
56122;SDS011;42426;46.104;19.656;2022-11-12T09:21:18;24.55;;;17.13;;
56122;SDS011;42426;46.104;19.656;2022-11-12T09:23:48;32.47;;;18.15;;
56122;SDS011;42426;46.104;19.656;2022-11-12T09:26:15;25.98;;;18.55;;
56122;SDS011;42426;46.104;19.656;2022-11-12T09:28:41;31.65;;;18.10;;
56122;SDS011;42426;46.104;19.656;2022-11-12T09:31:07;22.38;;;16.48;;
56122;SDS011;42426;46.104;19.656;2022-11-12T09:33:34;23.05;;;16.23;;
56122;SDS011;42426;46.104;19.656;2022-11-12T09:36:01;24.80;;;16.95;;
56122;SDS011;42426;46.104;19.656;2022-11-12T09:38:29;22.15;;;15.85;;
56122;SDS011;42426;46.104;19.656;2022-11-12T09:43:28;24.70;;;16.85;;
56122;SDS011;42426;46.104;19.656;2022-11-12T09:45:56;30.27;;;16.27;;
56122;SDS011;42426;46.104;19.656;2022-11-12T09:48:26;28.85;;;17.50;;
56122;SDS011;42426;46.104;19.656;2022-11-12T09:50:58;27.38;;;16.70;;
56122;SDS011;42426;46.104;19.656;2022-11-12T09:56:09;25.95;;;18.77;;
56122;SDS011;42426;46.104;19.656;2022-11-12T09:58:36;25.70;;;17.65;;
56122;SDS011;42426;46.104;19.656;2022-11-12T10:01:06;26.38;;;17.27;;
56122;SDS011;42426;46.104;19.656;2022-11-12T10:06:23;22.70;;;14.82;;
56122;SDS011;42426;46.104;19.656;2022-11-12T10:09:08;19.98;;;14.68;;
56122;SDS011;42426;46.104;19.656;2022-11-12T10:20:17;24.25;;;17.45;;
56122;SDS011;42426;46.104;19.656;2022-11-12T10:25:16;25.80;;;14.98;;
56122;SDS011;42426;46.104;19.656;2022-11-12T10:27:43;29.40;;;18.27;;
56122;SDS011;42426;46.104;19.656;2022-11-12T10:30:16;25.75;;;18.45;;
56122;SDS011;42426;46.104;19.656;2022-11-12T10:32:44;24.15;;;16.48;;
56122;SDS011;42426;46.104;19.656;2022-11-12T10:35:12;22.02;;;14.55;;
56122;SDS011;42426;46.104;19.656;2022-11-12T10:45:22;20.73;;;14.38;;
56122;SDS011;42426;46.104;19.656;2022-11-12T10:47:48;18.67;;;13.23;;
56122;SDS011;42426;46.104;19.656;2022-11-12T10:52:52;21.63;;;15.63;;
56122;SDS011;42426;46.104;19.656;2022-11-12T10:55:19;24.85;;;15.10;;
56122;SDS011;42426;46.104;19.656;2022-11-12T10:58:33;24.80;;;15.48;;
56122;SDS011;42426;46.104;19.656;2022-11-12T11:00:34;20.48;;;13.45;;
56122;SDS011;42426;46.104;19.656;2022-11-12T11:03:05;22.52;;;13.85;;
56122;SDS011;42426;46.104;19.656;2022-11-12T11:05:33;21.02;;;14.43;;
56122;SDS011;42426;46.104;19.656;2022-11-12T11:08:00;21.80;;;15.68;;
56122;SDS011;42426;46.104;19.656;2022-11-12T11:10:33;21.50;;;15.65;;
56122;SDS011;42426;46.104;19.656;2022-11-12T11:13:33;21.08;;;15.25;;
56122;SDS011;42426;46.104;19.656;2022-11-12T11:15:57;25.70;;;15.65;;
56122;SDS011;42426;46.104;19.656;2022-11-12T11:18:24;19.20;;;13.65;;
56122;SDS011;42426;46.104;19.656;2022-11-12T11:20:56;18.55;;;13.18;;
56122;SDS011;42426;46.104;19.656;2022-11-12T11:23:27;23.13;;;15.65;;
56122;SDS011;42426;46.104;19.656;2022-11-12T11:25:56;25.55;;;16.10;;
56122;SDS011;42426;46.104;19.656;2022-11-12T11:28:30;22.75;;;15.73;;
56122;SDS011;42426;46.104;19.656;2022-11-12T11:31:00;24.10;;;16.38;;
56122;SDS011;42426;46.104;19.656;2022-11-12T11:33:35;19.95;;;14.40;;
56122;SDS011;42426;46.104;19.656;2022-11-12T11:48:53;17.38;;;10.98;;
56122;SDS011;42426;46.104;19.656;2022-11-12T11:56:36;16.83;;;11.63;;
56122;SDS011;42426;46.104;19.656;2022-11-12T12:01:49;14.80;;;11.18;;
56122;SDS011;42426;46.104;19.656;2022-11-12T12:04:38;16.65;;;12.00;;
56122;SDS011;42426;46.104;19.656;2022-11-12T12:12:37;16.08;;;12.23;;
56122;SDS011;42426;46.104;19.656;2022-11-12T12:22:44;20.65;;;11.93;;
56122;SDS011;42426;46.104;19.656;2022-11-12T12:25:22;22.27;;;11.93;;
56122;SDS011;42426;46.104;19.656;2022-11-12T12:27:51;19.30;;;11.18;;
56122;SDS011;42426;46.104;19.656;2022-11-12T12:30:20;21.17;;;10.77;;
56122;SDS011;42426;46.104;19.656;2022-11-12T12:35:26;17.63;;;11.30;;
56122;SDS011;42426;46.104;19.656;2022-11-12T12:38:00;21.70;;;15.27;;
56122;SDS011;42426;46.104;19.656;2022-11-12T12:40:33;20.92;;;12.90;;
56122;SDS011;42426;46.104;19.656;2022-11-12T12:43:05;18.42;;;13.07;;
56122;SDS011;42426;46.104;19.656;2022-11-12T12:48:01;23.58;;;12.02;;
56122;SDS011;42426;46.104;19.656;2022-11-12T12:50:29;14.27;;;10.77;;
56122;SDS011;42426;46.104;19.656;2022-11-12T12:53:02;21.98;;;11.52;;
56122;SDS011;42426;46.104;19.656;2022-11-12T12:58:27;16.23;;;10.35;;
56122;SDS011;42426;46.104;19.656;2022-11-12T13:01:01;15.90;;;11.23;;
56122;SDS011;42426;46.104;19.656;2022-11-12T13:06:06;16.02;;;10.13;;
56122;SDS011;42426;46.104;19.656;2022-11-12T13:08:34;16.80;;;9.43;;
56122;SDS011;42426;46.104;19.656;2022-11-12T13:11:01;11.63;;;8.60;;
56122;SDS011;42426;46.104;19.656;2022-11-12T13:13:34;14.27;;;8.55;;
56122;SDS011;42426;46.104;19.656;2022-11-12T13:16:01;17.02;;;9.98;;
56122;SDS011;42426;46.104;19.656;2022-11-12T13:21:07;14.30;;;9.15;;
56122;SDS011;42426;46.104;19.656;2022-11-12T13:34:50;16.73;;;9.85;;
56122;SDS011;42426;46.104;19.656;2022-11-12T13:37:18;12.55;;;8.35;;
56122;SDS011;42426;46.104;19.656;2022-11-12T13:39:45;16.02;;;10.38;;
56122;SDS011;42426;46.104;19.656;2022-11-12T13:42:15;16.65;;;9.98;;
56122;SDS011;42426;46.104;19.656;2022-11-12T13:45:00;18.33;;;11.63;;
56122;SDS011;42426;46.104;19.656;2022-11-12T13:47:26;19.48;;;12.90;;
56122;SDS011;42426;46.104;19.656;2022-11-12T13:49:54;16.60;;;10.85;;
56122;SDS011;42426;46.104;19.656;2022-11-12T13:52:20;16.48;;;10.95;;
56122;SDS011;42426;46.104;19.656;2022-11-12T13:54:48;17.38;;;10.60;;
56122;SDS011;42426;46.104;19.656;2022-11-12T13:57:26;16.40;;;11.55;;
56122;SDS011;42426;46.104;19.656;2022-11-12T14:00:36;20.55;;;11.85;;
56122;SDS011;42426;46.104;19.656;2022-11-12T14:02:48;21.80;;;12.68;;
56122;SDS011;42426;46.104;19.656;2022-11-12T14:05:19;18.60;;;11.40;;
56122;SDS011;42426;46.104;19.656;2022-11-12T14:10:25;19.65;;;12.85;;
56122;SDS011;42426;46.104;19.656;2022-11-12T14:13:01;14.65;;;12.25;;
56122;SDS011;42426;46.104;19.656;2022-11-12T14:21:05;21.10;;;11.75;;
56122;SDS011;42426;46.104;19.656;2022-11-12T14:23:31;19.90;;;12.63;;
56122;SDS011;42426;46.104;19.656;2022-11-12T14:26:01;15.13;;;11.23;;
56122;SDS011;42426;46.104;19.656;2022-11-12T14:28:28;17.85;;;13.15;;
56122;SDS011;42426;46.104;19.656;2022-11-12T14:30:55;20.55;;;13.88;;
56122;SDS011;42426;46.104;19.656;2022-11-12T14:33:22;23.33;;;14.25;;
56122;SDS011;42426;46.104;19.656;2022-11-12T14:35:50;25.73;;;14.98;;
56122;SDS011;42426;46.104;19.656;2022-11-12T14:38:18;28.77;;;20.60;;
56122;SDS011;42426;46.104;19.656;2022-11-12T14:40:50;32.88;;;20.92;;
56122;SDS011;42426;46.104;19.656;2022-11-12T14:45:50;32.58;;;19.65;;
56122;SDS011;42426;46.104;19.656;2022-11-12T14:48:17;24.52;;;16.63;;
56122;SDS011;42426;46.104;19.656;2022-11-12T14:50:44;26.95;;;16.60;;
56122;SDS011;42426;46.104;19.656;2022-11-12T14:53:13;27.95;;;17.20;;
56122;SDS011;42426;46.104;19.656;2022-11-12T14:55:40;25.00;;;16.50;;
56122;SDS011;42426;46.104;19.656;2022-11-12T14:58:11;23.95;;;16.80;;
56122;SDS011;42426;46.104;19.656;2022-11-12T15:00:40;24.70;;;17.77;;
56122;SDS011;42426;46.104;19.656;2022-11-12T15:03:08;21.25;;;15.68;;
56122;SDS011;42426;46.104;19.656;2022-11-12T15:05:51;29.98;;;17.35;;
56122;SDS011;42426;46.104;19.656;2022-11-12T15:08:26;22.60;;;16.67;;
56122;SDS011;42426;46.104;19.656;2022-11-12T15:10:52;26.42;;;17.92;;
56122;SDS011;42426;46.104;19.656;2022-11-12T15:13:20;29.52;;;16.58;;
56122;SDS011;42426;46.104;19.656;2022-11-12T15:15:51;24.67;;;17.65;;
56122;SDS011;42426;46.104;19.656;2022-11-12T15:18:27;24.20;;;17.48;;
56122;SDS011;42426;46.104;19.656;2022-11-12T15:23:29;28.23;;;18.17;;
56122;SDS011;42426;46.104;19.656;2022-11-12T15:25:56;31.42;;;20.40;;
56122;SDS011;42426;46.104;19.656;2022-11-12T15:28:23;29.27;;;17.90;;
56122;SDS011;42426;46.104;19.656;2022-11-12T15:33:51;27.30;;;20.27;;
56122;SDS011;42426;46.104;19.656;2022-11-12T15:36:20;42.78;;;20.73;;
56122;SDS011;42426;46.104;19.656;2022-11-12T15:38:48;32.45;;;20.50;;
56122;SDS011;42426;46.104;19.656;2022-11-12T15:41:22;34.25;;;20.73;;
56122;SDS011;42426;46.104;19.656;2022-11-12T15:43:49;36.80;;;21.15;;
56122;SDS011;42426;46.104;19.656;2022-11-12T15:46:15;38.95;;;22.48;;
56122;SDS011;42426;46.104;19.656;2022-11-12T15:48:41;36.90;;;23.48;;
56122;SDS011;42426;46.104;19.656;2022-11-12T15:51:08;38.50;;;22.42;;
56122;SDS011;42426;46.104;19.656;2022-11-12T15:53:35;34.60;;;22.67;;
56122;SDS011;42426;46.104;19.656;2022-11-12T15:56:01;35.55;;;22.77;;
56122;SDS011;42426;46.104;19.656;2022-11-12T15:58:33;37.08;;;22.92;;
56122;SDS011;42426;46.104;19.656;2022-11-12T16:01:00;38.40;;;23.60;;
56122;SDS011;42426;46.104;19.656;2022-11-12T16:03:27;35.05;;;22.52;;